sensor_id;sensor_type;location;lat;lon;timestamp;temperature;humidity
75363;DHT22;64122;51.988;5.892;2024-01-07T00:00:37;3.93;72.00
75363;DHT22;64122;51.988;5.892;2024-01-07T00:03:06;3.92;72.00
75363;DHT22;64122;51.988;5.892;2024-01-07T00:05:38;3.94;71.93
75363;DHT22;64122;51.988;5.892;2024-01-07T00:08:07;3.88;72.15
75363;DHT22;64122;51.988;5.892;2024-01-07T00:10:37;3.88;72.24
75363;DHT22;64122;51.988;5.892;2024-01-07T00:13:06;3.91;72.13
75363;DHT22;64122;51.988;5.892;2024-01-07T00:15:35;3.85;72.33
75363;DHT22;64122;51.988;5.892;2024-01-07T00:18:04;3.86;72.40
75363;DHT22;64122;51.988;5.892;2024-01-07T00:20:33;3.84;72.41
75363;DHT22;64122;51.988;5.892;2024-01-07T00:23:05;3.76;72.58
75363;DHT22;64122;51.988;5.892;2024-01-07T00:25:34;3.75;72.73
75363;DHT22;64122;51.988;5.892;2024-01-07T00:28:04;3.74;72.80
75363;DHT22;64122;51.988;5.892;2024-01-07T00:30:33;3.72;72.95
75363;DHT22;64122;51.988;5.892;2024-01-07T00:33:03;3.72;72.99
75363;DHT22;64122;51.988;5.892;2024-01-07T00:35:32;3.73;72.99
75363;DHT22;64122;51.988;5.892;2024-01-07T00:38:01;3.76;72.94
75363;DHT22;64122;51.988;5.892;2024-01-07T00:40:33;3.76;72.96
75363;DHT22;64122;51.988;5.892;2024-01-07T00:43:02;3.69;73.12
75363;DHT22;64122;51.988;5.892;2024-01-07T00:45:32;3.60;73.33
75363;DHT22;64122;51.988;5.892;2024-01-07T00:48:02;3.58;73.44
75363;DHT22;64122;51.988;5.892;2024-01-07T00:50:31;3.62;73.35
75363;DHT22;64122;51.988;5.892;2024-01-07T00:53:00;3.59;73.25
75363;DHT22;64122;51.988;5.892;2024-01-07T00:55:33;3.59;73.21
75363;DHT22;64122;51.988;5.892;2024-01-07T00:58:02;3.61;73.15
75363;DHT22;64122;51.988;5.892;2024-01-07T01:00:33;3.65;72.98
75363;DHT22;64122;51.988;5.892;2024-01-07T01:03:02;3.70;72.81
75363;DHT22;64122;51.988;5.892;2024-01-07T01:05:31;3.70;72.70
75363;DHT22;64122;51.988;5.892;2024-01-07T01:08:00;3.64;72.68
75363;DHT22;64122;51.988;5.892;2024-01-07T01:10:32;3.68;72.67
75363;DHT22;64122;51.988;5.892;2024-01-07T01:13:02;3.72;72.57
75363;DHT22;64122;51.988;5.892;2024-01-07T01:15:31;3.75;72.48
75363;DHT22;64122;51.988;5.892;2024-01-07T01:18:00;3.73;72.38
75363;DHT22;64122;51.988;5.892;2024-01-07T01:20:30;3.69;72.41
75363;DHT22;64122;51.988;5.892;2024-01-07T01:22:59;3.68;72.35
75363;DHT22;64122;51.988;5.892;2024-01-07T01:25:28;3.65;72.35
75363;DHT22;64122;51.988;5.892;2024-01-07T01:28:00;3.63;72.28
75363;DHT22;64122;51.988;5.892;2024-01-07T01:30:29;3.59;72.35
75363;DHT22;64122;51.988;5.892;2024-01-07T01:32:59;3.67;72.32
75363;DHT22;64122;51.988;5.892;2024-01-07T01:35:28;3.67;72.25
75363;DHT22;64122;51.988;5.892;2024-01-07T01:37:57;3.69;72.13
75363;DHT22;64122;51.988;5.892;2024-01-07T01:40:26;3.64;72.21
75363;DHT22;64122;51.988;5.892;2024-01-07T01:42:56;3.63;72.19
75363;DHT22;64122;51.988;5.892;2024-01-07T01:45:28;3.59;72.21
75363;DHT22;64122;51.988;5.892;2024-01-07T01:47:57;3.50;72.45
75363;DHT22;64122;51.988;5.892;2024-01-07T01:50:26;3.53;72.50
75363;DHT22;64122;51.988;5.892;2024-01-07T01:52:56;3.52;72.59
75363;DHT22;64122;51.988;5.892;2024-01-07T01:55:25;3.56;72.51
75363;DHT22;64122;51.988;5.892;2024-01-07T01:57:55;3.54;72.57
75363;DHT22;64122;51.988;5.892;2024-01-07T02:00:32;3.58;72.50
75363;DHT22;64122;51.988;5.892;2024-01-07T02:03:01;3.61;72.53
75363;DHT22;64122;51.988;5.892;2024-01-07T02:05:31;3.67;72.41
75363;DHT22;64122;51.988;5.892;2024-01-07T02:08:01;3.73;72.42
75363;DHT22;64122;51.988;5.892;2024-01-07T02:10:30;3.77;72.38
75363;DHT22;64122;51.988;5.892;2024-01-07T02:13:00;3.84;72.29
75363;DHT22;64122;51.988;5.892;2024-01-07T02:15:32;3.83;72.37
75363;DHT22;64122;51.988;5.892;2024-01-07T02:18:02;3.80;72.37
75363;DHT22;64122;51.988;5.892;2024-01-07T02:20:31;3.73;72.46
75363;DHT22;64122;51.988;5.892;2024-01-07T02:23:01;3.73;72.55
75363;DHT22;64122;51.988;5.892;2024-01-07T02:25:37;3.72;72.48
75363;DHT22;64122;51.988;5.892;2024-01-07T02:28:06;3.69;72.68
75363;DHT22;64122;51.988;5.892;2024-01-07T02:30:36;3.63;72.88
75363;DHT22;64122;51.988;5.892;2024-01-07T02:33:05;3.62;72.90
75363;DHT22;64122;51.988;5.892;2024-01-07T02:35:35;3.63;72.97
75363;DHT22;64122;51.988;5.892;2024-01-07T02:38:05;3.58;73.02
75363;DHT22;64122;51.988;5.892;2024-01-07T02:40:36;3.55;73.13
75363;DHT22;64122;51.988;5.892;2024-01-07T02:43:06;3.47;73.28
75363;DHT22;64122;51.988;5.892;2024-01-07T02:45:35;3.40;73.38
75363;DHT22;64122;51.988;5.892;2024-01-07T02:48:05;3.38;73.44
75363;DHT22;64122;51.988;5.892;2024-01-07T02:50:35;3.32;73.59
75363;DHT22;64122;51.988;5.892;2024-01-07T02:53:04;3.38;73.46
75363;DHT22;64122;51.988;5.892;2024-01-07T02:55:37;3.36;73.38
75363;DHT22;64122;51.988;5.892;2024-01-07T02:58:06;3.38;73.38
75363;DHT22;64122;51.988;5.892;2024-01-07T03:00:35;3.42;73.30
75363;DHT22;64122;51.988;5.892;2024-01-07T03:03:05;3.43;73.22
75363;DHT22;64122;51.988;5.892;2024-01-07T03:05:34;3.45;73.21
75363;DHT22;64122;51.988;5.892;2024-01-07T03:08:04;3.47;73.17
75363;DHT22;64122;51.988;5.892;2024-01-07T03:10:33;3.45;73.14
75363;DHT22;64122;51.988;5.892;2024-01-07T03:13:05;3.48;72.93
75363;DHT22;64122;51.988;5.892;2024-01-07T03:15:34;3.48;72.87
75363;DHT22;64122;51.988;5.892;2024-01-07T03:18:04;3.44;72.74
75363;DHT22;64122;51.988;5.892;2024-01-07T03:20:34;3.42;72.72
75363;DHT22;64122;51.988;5.892;2024-01-07T03:23:03;3.44;72.67
75363;DHT22;64122;51.988;5.892;2024-01-07T03:25:33;3.46;72.58
75363;DHT22;64122;51.988;5.892;2024-01-07T03:28:05;3.42;72.46
75363;DHT22;64122;51.988;5.892;2024-01-07T03:30:34;3.42;72.51
75363;DHT22;64122;51.988;5.892;2024-01-07T03:33:04;3.39;72.44
75363;DHT22;64122;51.988;5.892;2024-01-07T03:35:33;3.36;72.44
75363;DHT22;64122;51.988;5.892;2024-01-07T03:38:02;3.32;72.51
75363;DHT22;64122;51.988;5.892;2024-01-07T03:40:32;3.29;72.56
75363;DHT22;64122;51.988;5.892;2024-01-07T03:43:01;3.29;72.56
75363;DHT22;64122;51.988;5.892;2024-01-07T03:45:33;3.34;72.45
75363;DHT22;64122;51.988;5.892;2024-01-07T03:48:03;3.31;72.34
75363;DHT22;64122;51.988;5.892;2024-01-07T03:50:32;3.24;72.23
75363;DHT22;64122;51.988;5.892;2024-01-07T03:53:02;3.16;72.22
75363;DHT22;64122;51.988;5.892;2024-01-07T03:55:31;3.11;72.34
75363;DHT22;64122;51.988;5.892;2024-01-07T03:58:00;3.09;72.41
75363;DHT22;64122;51.988;5.892;2024-01-07T04:00:32;3.18;72.37
75363;DHT22;64122;51.988;5.892;2024-01-07T04:03:01;3.20;72.32
75363;DHT22;64122;51.988;5.892;2024-01-07T04:05:31;3.19;72.24
75363;DHT22;64122;51.988;5.892;2024-01-07T04:08:00;3.13;72.41
75363;DHT22;64122;51.988;5.892;2024-01-07T04:10:30;3.11;72.41
75363;DHT22;64122;51.988;5.892;2024-01-07T04:12:59;3.03;72.43
75363;DHT22;64122;51.988;5.892;2024-01-07T04:15:29;3.03;72.48
75363;DHT22;64122;51.988;5.892;2024-01-07T04:18:04;3.06;72.36
75363;DHT22;64122;51.988;5.892;2024-01-07T04:20:33;3.05;72.39
75363;DHT22;64122;51.988;5.892;2024-01-07T04:23:03;3.06;72.33
75363;DHT22;64122;51.988;5.892;2024-01-07T04:25:32;3.02;72.26
75363;DHT22;64122;51.988;5.892;2024-01-07T04:28:01;2.98;72.32
75363;DHT22;64122;51.988;5.892;2024-01-07T04:30:30;2.98;72.44
75363;DHT22;64122;51.988;5.892;2024-01-07T04:33:02;3.04;72.34
75363;DHT22;64122;51.988;5.892;2024-01-07T04:35:32;3.05;72.11
75363;DHT22;64122;51.988;5.892;2024-01-07T04:38:01;3.01;72.09
75363;DHT22;64122;51.988;5.892;2024-01-07T04:40:31;3.09;72.07
75363;DHT22;64122;51.988;5.892;2024-01-07T04:43:00;3.13;71.89
75363;DHT22;64122;51.988;5.892;2024-01-07T04:45:29;3.09;71.77
75363;DHT22;64122;51.988;5.892;2024-01-07T04:47:58;3.14;71.77
75363;DHT22;64122;51.988;5.892;2024-01-07T04:50:30;3.10;71.54
75363;DHT22;64122;51.988;5.892;2024-01-07T04:52:59;3.02;71.55
75363;DHT22;64122;51.988;5.892;2024-01-07T04:55:30;3.05;71.53
75363;DHT22;64122;51.988;5.892;2024-01-07T04:57:59;2.99;71.48
75363;DHT22;64122;51.988;5.892;2024-01-07T05:00:30;3.02;71.47
75363;DHT22;64122;51.988;5.892;2024-01-07T05:02:59;3.03;71.30
75363;DHT22;64122;51.988;5.892;2024-01-07T05:05:31;2.99;71.25
75363;DHT22;64122;51.988;5.892;2024-01-07T05:08:02;2.95;71.22
75363;DHT22;64122;51.988;5.892;2024-01-07T05:10:31;2.98;71.21
75363;DHT22;64122;51.988;5.892;2024-01-07T05:13:01;2.98;71.14
75363;DHT22;64122;51.988;5.892;2024-01-07T05:15:32;2.94;71.14
75363;DHT22;64122;51.988;5.892;2024-01-07T05:18:02;2.93;71.13
75363;DHT22;64122;51.988;5.892;2024-01-07T05:20:34;2.89;71.00
75363;DHT22;64122;51.988;5.892;2024-01-07T05:23:03;2.84;71.03
75363;DHT22;64122;51.988;5.892;2024-01-07T05:25:32;2.86;71.04
75363;DHT22;64122;51.988;5.892;2024-01-07T05:28:02;2.87;71.03
75363;DHT22;64122;51.988;5.892;2024-01-07T05:30:32;2.84;70.89
75363;DHT22;64122;51.988;5.892;2024-01-07T05:33:01;2.79;70.90
75363;DHT22;64122;51.988;5.892;2024-01-07T05:35:33;2.79;70.98
75363;DHT22;64122;51.988;5.892;2024-01-07T05:38:02;2.82;70.94
75363;DHT22;64122;51.988;5.892;2024-01-07T05:40:32;2.82;70.82
75363;DHT22;64122;51.988;5.892;2024-01-07T05:43:01;2.83;70.77
75363;DHT22;64122;51.988;5.892;2024-01-07T05:45:30;2.76;70.84
75363;DHT22;64122;51.988;5.892;2024-01-07T05:47:59;2.83;70.84
75363;DHT22;64122;51.988;5.892;2024-01-07T05:50:28;2.76;70.67
75363;DHT22;64122;51.988;5.892;2024-01-07T05:53:00;2.76;70.65
75363;DHT22;64122;51.988;5.892;2024-01-07T05:55:29;2.81;70.69
75363;DHT22;64122;51.988;5.892;2024-01-07T05:57:59;2.84;70.64
75363;DHT22;64122;51.988;5.892;2024-01-07T06:00:28;2.81;70.54
75363;DHT22;64122;51.988;5.892;2024-01-07T06:02:57;2.81;70.53
75363;DHT22;64122;51.988;5.892;2024-01-07T06:05:27;2.80;70.55
75363;DHT22;64122;51.988;5.892;2024-01-07T06:07:56;2.85;70.59
75363;DHT22;64122;51.988;5.892;2024-01-07T06:10:28;2.89;70.46
75363;DHT22;64122;51.988;5.892;2024-01-07T06:12:57;2.89;70.45
75363;DHT22;64122;51.988;5.892;2024-01-07T06:15:26;2.91;70.33
75363;DHT22;64122;51.988;5.892;2024-01-07T06:17:55;2.90;70.24
75363;DHT22;64122;51.988;5.892;2024-01-07T06:20:24;2.85;70.16
75363;DHT22;64122;51.988;5.892;2024-01-07T06:22:54;2.76;70.13
75363;DHT22;64122;51.988;5.892;2024-01-07T06:25:23;2.70;70.26
75363;DHT22;64122;51.988;5.892;2024-01-07T06:27:56;2.70;70.18
75363;DHT22;64122;51.988;5.892;2024-01-07T06:30:25;2.70;70.20
75363;DHT22;64122;51.988;5.892;2024-01-07T06:32:55;2.72;70.20
75363;DHT22;64122;51.988;5.892;2024-01-07T06:35:24;2.75;70.13
75363;DHT22;64122;51.988;5.892;2024-01-07T06:37:54;2.71;70.00
75363;DHT22;64122;51.988;5.892;2024-01-07T06:40:23;2.65;70.06
75363;DHT22;64122;51.988;5.892;2024-01-07T06:42:52;2.62;70.05
75363;DHT22;64122;51.988;5.892;2024-01-07T06:45:25;2.61;69.94
75363;DHT22;64122;51.988;5.892;2024-01-07T06:47:54;2.61;70.04
75363;DHT22;64122;51.988;5.892;2024-01-07T06:50:24;2.61;70.07
75363;DHT22;64122;51.988;5.892;2024-01-07T06:52:53;2.57;69.88
75363;DHT22;64122;51.988;5.892;2024-01-07T06:55:22;2.53;69.93
75363;DHT22;64122;51.988;5.892;2024-01-07T06:57:52;2.55;69.90
75363;DHT22;64122;51.988;5.892;2024-01-07T07:00:21;2.53;69.87
75363;DHT22;64122;51.988;5.892;2024-01-07T07:02:53;2.54;69.58
75363;DHT22;64122;51.988;5.892;2024-01-07T07:05:22;2.52;69.49
75363;DHT22;64122;51.988;5.892;2024-01-07T07:07:51;2.52;69.50
75363;DHT22;64122;51.988;5.892;2024-01-07T07:10:20;2.53;69.37
75363;DHT22;64122;51.988;5.892;2024-01-07T07:12:50;2.59;69.34
75363;DHT22;64122;51.988;5.892;2024-01-07T07:15:19;2.60;69.26
75363;DHT22;64122;51.988;5.892;2024-01-07T07:17:48;2.58;69.13
75363;DHT22;64122;51.988;5.892;2024-01-07T07:20:20;2.60;69.10
75363;DHT22;64122;51.988;5.892;2024-01-07T07:22:49;2.54;69.01
75363;DHT22;64122;51.988;5.892;2024-01-07T07:25:18;2.56;69.12
75363;DHT22;64122;51.988;5.892;2024-01-07T07:27:48;2.56;69.00
75363;DHT22;64122;51.988;5.892;2024-01-07T07:30:17;2.56;69.05
75363;DHT22;64122;51.988;5.892;2024-01-07T07:32:47;2.53;69.08
75363;DHT22;64122;51.988;5.892;2024-01-07T07:35:16;2.46;69.12
75363;DHT22;64122;51.988;5.892;2024-01-07T07:37:48;2.41;69.19
75363;DHT22;64122;51.988;5.892;2024-01-07T07:40:17;2.37;69.35
75363;DHT22;64122;51.988;5.892;2024-01-07T07:42:46;2.38;69.36
75363;DHT22;64122;51.988;5.892;2024-01-07T07:45:15;2.37;69.26
75363;DHT22;64122;51.988;5.892;2024-01-07T07:47:47;2.41;69.19
75363;DHT22;64122;51.988;5.892;2024-01-07T07:50:16;2.38;69.06
75363;DHT22;64122;51.988;5.892;2024-01-07T07:52:48;2.51;68.97
75363;DHT22;64122;51.988;5.892;2024-01-07T07:55:17;2.57;68.89
75363;DHT22;64122;51.988;5.892;2024-01-07T07:57:47;2.58;68.68
75363;DHT22;64122;51.988;5.892;2024-01-07T08:00:18;2.60;68.62
75363;DHT22;64122;51.988;5.892;2024-01-07T08:02:47;2.65;68.64
75363;DHT22;64122;51.988;5.892;2024-01-07T08:05:18;2.59;68.69
75363;DHT22;64122;51.988;5.892;2024-01-07T08:07:49;2.64;68.81
75363;DHT22;64122;51.988;5.892;2024-01-07T08:10:20;2.69;68.81
75363;DHT22;64122;51.988;5.892;2024-01-07T08:12:49;2.65;68.70
75363;DHT22;64122;51.988;5.892;2024-01-07T08:15:19;2.57;68.66
75363;DHT22;64122;51.988;5.892;2024-01-07T08:17:48;2.46;68.78
75363;DHT22;64122;51.988;5.892;2024-01-07T08:20:17;2.44;68.96
75363;DHT22;64122;51.988;5.892;2024-01-07T08:22:49;2.42;68.95
75363;DHT22;64122;51.988;5.892;2024-01-07T08:25:18;2.40;68.96
75363;DHT22;64122;51.988;5.892;2024-01-07T08:27:49;2.40;68.82
75363;DHT22;64122;51.988;5.892;2024-01-07T08:30:18;2.39;68.79
75363;DHT22;64122;51.988;5.892;2024-01-07T08:32:47;2.41;68.74
75363;DHT22;64122;51.988;5.892;2024-01-07T08:35:16;2.42;68.64
75363;DHT22;64122;51.988;5.892;2024-01-07T08:37:46;2.45;68.49
75363;DHT22;64122;51.988;5.892;2024-01-07T08:40:18;2.56;68.38
75363;DHT22;64122;51.988;5.892;2024-01-07T08:42:48;2.59;68.44
75363;DHT22;64122;51.988;5.892;2024-01-07T08:45:17;2.66;68.29
75363;DHT22;64122;51.988;5.892;2024-01-07T08:47:46;2.70;68.32
75363;DHT22;64122;51.988;5.892;2024-01-07T08:50:15;2.64;67.93
75363;DHT22;64122;51.988;5.892;2024-01-07T08:52:46;2.69;68.12
75363;DHT22;64122;51.988;5.892;2024-01-07T08:55:18;2.76;68.01
75363;DHT22;64122;51.988;5.892;2024-01-07T08:57:47;2.67;67.80
75363;DHT22;64122;51.988;5.892;2024-01-07T09:00:18;2.64;67.78
75363;DHT22;64122;51.988;5.892;2024-01-07T09:02:52;2.60;67.99
75363;DHT22;64122;51.988;5.892;2024-01-07T09:05:21;2.61;67.92
75363;DHT22;64122;51.988;5.892;2024-01-07T09:07:50;2.60;67.72
75363;DHT22;64122;51.988;5.892;2024-01-07T09:10:22;2.53;67.16
75363;DHT22;64122;51.988;5.892;2024-01-07T09:12:52;2.52;67.33
75363;DHT22;64122;51.988;5.892;2024-01-07T09:15:22;2.45;66.82
75363;DHT22;64122;51.988;5.892;2024-01-07T09:17:51;2.40;66.75
75363;DHT22;64122;51.988;5.892;2024-01-07T09:20:20;2.37;66.64
75363;DHT22;64122;51.988;5.892;2024-01-07T09:22:50;2.44;66.75
75363;DHT22;64122;51.988;5.892;2024-01-07T09:25:21;2.52;66.77
75363;DHT22;64122;51.988;5.892;2024-01-07T09:27:52;2.58;66.74
75363;DHT22;64122;51.988;5.892;2024-01-07T09:30:21;2.51;66.33
75363;DHT22;64122;51.988;5.892;2024-01-07T09:32:50;2.55;66.55
75363;DHT22;64122;51.988;5.892;2024-01-07T09:35:20;2.61;66.42
75363;DHT22;64122;51.988;5.892;2024-01-07T09:37:49;2.59;65.95
75363;DHT22;64122;51.988;5.892;2024-01-07T09:40:18;2.59;65.98
75363;DHT22;64122;51.988;5.892;2024-01-07T09:42:50;2.51;65.82
75363;DHT22;64122;51.988;5.892;2024-01-07T09:45:20;2.51;65.94
75363;DHT22;64122;51.988;5.892;2024-01-07T09:47:50;2.49;65.84
75363;DHT22;64122;51.988;5.892;2024-01-07T09:50:19;2.49;65.81
75363;DHT22;64122;51.988;5.892;2024-01-07T09:52:50;2.55;65.75
75363;DHT22;64122;51.988;5.892;2024-01-07T09:55:26;2.54;65.58
75363;DHT22;64122;51.988;5.892;2024-01-07T09:57:58;2.54;65.66
75363;DHT22;64122;51.988;5.892;2024-01-07T10:00:28;2.53;65.57
75363;DHT22;64122;51.988;5.892;2024-01-07T10:02:57;2.44;65.17
75363;DHT22;64122;51.988;5.892;2024-01-07T10:05:27;2.53;65.47
75363;DHT22;64122;51.988;5.892;2024-01-07T10:07:56;2.61;65.06
75363;DHT22;64122;51.988;5.892;2024-01-07T10:10:25;2.70;64.72
75363;DHT22;64122;51.988;5.892;2024-01-07T10:12:54;2.81;64.63
75363;DHT22;64122;51.988;5.892;2024-01-07T10:15:26;2.89;64.16
75363;DHT22;64122;51.988;5.892;2024-01-07T10:18:00;2.95;63.97
75363;DHT22;64122;51.988;5.892;2024-01-07T10:20:32;2.96;64.01
75363;DHT22;64122;51.988;5.892;2024-01-07T10:23:02;2.91;63.61
75363;DHT22;64122;51.988;5.892;2024-01-07T10:25:34;2.90;63.34
75363;DHT22;64122;51.988;5.892;2024-01-07T10:28:04;2.96;63.27
75363;DHT22;64122;51.988;5.892;2024-01-07T10:30:38;3.08;63.18
75363;DHT22;64122;51.988;5.892;2024-01-07T10:33:08;3.13;62.79
75363;DHT22;64122;51.988;5.892;2024-01-07T10:35:37;3.12;62.41
75363;DHT22;64122;51.988;5.892;2024-01-07T10:38:08;3.15;62.12
75363;DHT22;64122;51.988;5.892;2024-01-07T10:40:38;3.26;62.09
75363;DHT22;64122;51.988;5.892;2024-01-07T10:43:09;3.30;62.15
75363;DHT22;64122;51.988;5.892;2024-01-07T10:45:41;3.28;61.29
75363;DHT22;64122;51.988;5.892;2024-01-07T10:48:10;3.26;61.39
75363;DHT22;64122;51.988;5.892;2024-01-07T10:50:42;3.29;61.22
75363;DHT22;64122;51.988;5.892;2024-01-07T10:53:20;3.24;61.09
75363;DHT22;64122;51.988;5.892;2024-01-07T10:55:55;3.34;61.33
75363;DHT22;64122;51.988;5.892;2024-01-07T10:58:26;3.45;61.40
75363;DHT22;64122;51.988;5.892;2024-01-07T11:00:58;3.40;60.48
75363;DHT22;64122;51.988;5.892;2024-01-07T11:03:36;3.27;60.44
75363;DHT22;64122;51.988;5.892;2024-01-07T11:06:11;3.30;60.75
75363;DHT22;64122;51.988;5.892;2024-01-07T11:08:54;3.31;60.73
75363;DHT22;64122;51.988;5.892;2024-01-07T11:11:26;3.16;60.56
75363;DHT22;64122;51.988;5.892;2024-01-07T11:13:56;3.17;60.96
75363;DHT22;64122;51.988;5.892;2024-01-07T11:16:54;3.20;60.89
75363;DHT22;64122;51.988;5.892;2024-01-07T11:19:24;3.26;60.95
75363;DHT22;64122;51.988;5.892;2024-01-07T11:21:53;3.32;60.95
75363;DHT22;64122;51.988;5.892;2024-01-07T11:24:37;3.43;60.38
75363;DHT22;64122;51.988;5.892;2024-01-07T11:27:08;3.41;60.05
75363;DHT22;64122;51.988;5.892;2024-01-07T11:29:37;3.59;59.99
75363;DHT22;64122;51.988;5.892;2024-01-07T11:32:12;3.64;59.41
75363;DHT22;64122;51.988;5.892;2024-01-07T11:34:42;3.48;59.12
75363;DHT22;64122;51.988;5.892;2024-01-07T11:37:15;3.53;59.23
75363;DHT22;64122;51.988;5.892;2024-01-07T11:39:45;3.48;59.03
75363;DHT22;64122;51.988;5.892;2024-01-07T11:42:14;3.27;58.75
75363;DHT22;64122;51.988;5.892;2024-01-07T11:44:47;3.02;59.09
75363;DHT22;64122;51.988;5.892;2024-01-07T11:47:20;2.90;59.65
75363;DHT22;64122;51.988;5.892;2024-01-07T11:49:50;2.74;59.96
75363;DHT22;64122;51.988;5.892;2024-01-07T11:52:20;2.68;60.35
75363;DHT22;64122;51.988;5.892;2024-01-07T11:54:49;2.73;60.28
75363;DHT22;64122;51.988;5.892;2024-01-07T11:57:18;2.69;60.25
75363;DHT22;64122;51.988;5.892;2024-01-07T11:59:49;2.71;60.15
75363;DHT22;64122;51.988;5.892;2024-01-07T12:02:21;2.76;59.76
75363;DHT22;64122;51.988;5.892;2024-01-07T12:04:56;2.83;59.76
75363;DHT22;64122;51.988;5.892;2024-01-07T12:07:25;2.91;59.66
75363;DHT22;64122;51.988;5.892;2024-01-07T12:09:55;2.98;59.49
75363;DHT22;64122;51.988;5.892;2024-01-07T12:12:25;3.09;59.61
75363;DHT22;64122;51.988;5.892;2024-01-07T12:14:55;3.20;59.30
75363;DHT22;64122;51.988;5.892;2024-01-07T12:17:27;3.29;58.90
75363;DHT22;64122;51.988;5.892;2024-01-07T12:19:56;3.27;58.32
75363;DHT22;64122;51.988;5.892;2024-01-07T12:22:27;3.40;58.48
75363;DHT22;64122;51.988;5.892;2024-01-07T12:25:03;3.48;58.06
75363;DHT22;64122;51.988;5.892;2024-01-07T12:27:33;3.54;57.63
75363;DHT22;64122;51.988;5.892;2024-01-07T12:30:05;3.55;57.15
75363;DHT22;64122;51.988;5.892;2024-01-07T12:32:37;3.48;56.40
75363;DHT22;64122;51.988;5.892;2024-01-07T12:35:07;3.30;55.99
75363;DHT22;64122;51.988;5.892;2024-01-07T12:37:37;3.03;54.92
75363;DHT22;64122;51.988;5.892;2024-01-07T12:40:08;2.88;55.81
75363;DHT22;64122;51.988;5.892;2024-01-07T12:42:38;2.84;56.44
75363;DHT22;64122;51.988;5.892;2024-01-07T12:45:11;2.70;56.26
75363;DHT22;64122;51.988;5.892;2024-01-07T12:47:45;2.71;56.62
75363;DHT22;64122;51.988;5.892;2024-01-07T12:50:14;2.79;56.71
75363;DHT22;64122;51.988;5.892;2024-01-07T12:52:44;2.98;56.55
75363;DHT22;64122;51.988;5.892;2024-01-07T12:55:13;3.24;56.47
75363;DHT22;64122;51.988;5.892;2024-01-07T12:57:42;3.52;56.00
75363;DHT22;64122;51.988;5.892;2024-01-07T13:00:13;3.72;55.44
75363;DHT22;64122;51.988;5.892;2024-01-07T13:02:45;3.88;55.13
75363;DHT22;64122;51.988;5.892;2024-01-07T13:05:14;4.05;55.10
75363;DHT22;64122;51.988;5.892;2024-01-07T13:07:45;4.15;55.03
75363;DHT22;64122;51.988;5.892;2024-01-07T13:10:16;4.08;54.69
75363;DHT22;64122;51.988;5.892;2024-01-07T13:12:45;3.89;53.88
75363;DHT22;64122;51.988;5.892;2024-01-07T13:15:14;3.74;53.99
75363;DHT22;64122;51.988;5.892;2024-01-07T13:17:46;3.63;54.33
75363;DHT22;64122;51.988;5.892;2024-01-07T13:20:15;3.53;54.68
75363;DHT22;64122;51.988;5.892;2024-01-07T13:22:46;3.50;54.49
75363;DHT22;64122;51.988;5.892;2024-01-07T13:25:15;3.60;54.72
75363;DHT22;64122;51.988;5.892;2024-01-07T13:27:44;3.70;54.58
75363;DHT22;64122;51.988;5.892;2024-01-07T13:30:14;3.83;53.84
75363;DHT22;64122;51.988;5.892;2024-01-07T13:32:46;3.86;53.84
75363;DHT22;64122;51.988;5.892;2024-01-07T13:35:15;3.97;54.00
75363;DHT22;64122;51.988;5.892;2024-01-07T13:37:44;3.98;53.68
75363;DHT22;64122;51.988;5.892;2024-01-07T13:40:14;4.04;54.11
75363;DHT22;64122;51.988;5.892;2024-01-07T13:42:43;4.05;54.30
75363;DHT22;64122;51.988;5.892;2024-01-07T13:45:16;4.02;54.87
75363;DHT22;64122;51.988;5.892;2024-01-07T13:47:49;4.09;54.33
75363;DHT22;64122;51.988;5.892;2024-01-07T13:50:18;4.17;54.40
75363;DHT22;64122;51.988;5.892;2024-01-07T13:52:47;4.28;54.39
75363;DHT22;64122;51.988;5.892;2024-01-07T13:55:17;4.37;54.07
75363;DHT22;64122;51.988;5.892;2024-01-07T13:57:46;4.38;53.60
75363;DHT22;64122;51.988;5.892;2024-01-07T14:00:16;4.31;53.52
75363;DHT22;64122;51.988;5.892;2024-01-07T14:02:49;4.27;53.55
75363;DHT22;64122;51.988;5.892;2024-01-07T14:05:18;4.01;52.67
75363;DHT22;64122;51.988;5.892;2024-01-07T14:07:47;3.95;53.46
75363;DHT22;64122;51.988;5.892;2024-01-07T14:10:18;3.91;53.21
75363;DHT22;64122;51.988;5.892;2024-01-07T14:12:47;3.78;53.33
75363;DHT22;64122;51.988;5.892;2024-01-07T14:15:17;3.68;53.29
75363;DHT22;64122;51.988;5.892;2024-01-07T14:17:49;3.68;53.52
75363;DHT22;64122;51.988;5.892;2024-01-07T14:20:19;3.68;53.82
75363;DHT22;64122;51.988;5.892;2024-01-07T14:22:48;3.67;53.87
75363;DHT22;64122;51.988;5.892;2024-01-07T14:25:17;3.72;54.01
75363;DHT22;64122;51.988;5.892;2024-01-07T14:27:46;3.79;54.21
75363;DHT22;64122;51.988;5.892;2024-01-07T14:30:16;3.76;54.19
75363;DHT22;64122;51.988;5.892;2024-01-07T14:32:45;3.77;54.15
75363;DHT22;64122;51.988;5.892;2024-01-07T14:35:17;3.71;54.00
75363;DHT22;64122;51.988;5.892;2024-01-07T14:37:46;3.62;54.29
75363;DHT22;64122;51.988;5.892;2024-01-07T14:40:16;3.46;53.93
75363;DHT22;64122;51.988;5.892;2024-01-07T14:42:45;3.33;54.49
75363;DHT22;64122;51.988;5.892;2024-01-07T14:45:14;3.28;54.80
75363;DHT22;64122;51.988;5.892;2024-01-07T14:47:44;3.17;54.43
75363;DHT22;64122;51.988;5.892;2024-01-07T14:50:13;3.16;54.68
75363;DHT22;64122;51.988;5.892;2024-01-07T14:52:46;3.18;54.63
75363;DHT22;64122;51.988;5.892;2024-01-07T14:55:17;3.20;54.66
75363;DHT22;64122;51.988;5.892;2024-01-07T14:57:46;3.16;54.82
75363;DHT22;64122;51.988;5.892;2024-01-07T15:00:16;3.13;54.99
75363;DHT22;64122;51.988;5.892;2024-01-07T15:02:45;3.14;55.26
75363;DHT22;64122;51.988;5.892;2024-01-07T15:05:15;3.13;55.37
75363;DHT22;64122;51.988;5.892;2024-01-07T15:07:47;3.11;55.55
75363;DHT22;64122;51.988;5.892;2024-01-07T15:10:16;2.98;55.65
75363;DHT22;64122;51.988;5.892;2024-01-07T15:12:46;2.90;55.77
75363;DHT22;64122;51.988;5.892;2024-01-07T15:15:16;2.80;56.15
75363;DHT22;64122;51.988;5.892;2024-01-07T15:17:47;2.71;56.42
75363;DHT22;64122;51.988;5.892;2024-01-07T15:20:17;2.62;56.61
75363;DHT22;64122;51.988;5.892;2024-01-07T15:22:48;2.54;56.87
75363;DHT22;64122;51.988;5.892;2024-01-07T15:25:19;2.42;57.19
75363;DHT22;64122;51.988;5.892;2024-01-07T15:27:48;2.29;57.20
75363;DHT22;64122;51.988;5.892;2024-01-07T15:30:17;2.20;57.42
75363;DHT22;64122;51.988;5.892;2024-01-07T15:32:47;2.16;57.61
75363;DHT22;64122;51.988;5.892;2024-01-07T15:35:16;2.08;57.73
75363;DHT22;64122;51.988;5.892;2024-01-07T15:37:48;2.07;57.96
75363;DHT22;64122;51.988;5.892;2024-01-07T15:40:17;2.06;58.15
75363;DHT22;64122;51.988;5.892;2024-01-07T15:42:46;2.00;58.23
75363;DHT22;64122;51.988;5.892;2024-01-07T15:45:16;1.93;58.12
75363;DHT22;64122;51.988;5.892;2024-01-07T15:47:45;1.88;58.33
75363;DHT22;64122;51.988;5.892;2024-01-07T15:50:14;1.86;58.40
75363;DHT22;64122;51.988;5.892;2024-01-07T15:52:44;1.83;58.60
75363;DHT22;64122;51.988;5.892;2024-01-07T15:55:17;1.76;58.50
75363;DHT22;64122;51.988;5.892;2024-01-07T15:57:47;1.71;58.65
75363;DHT22;64122;51.988;5.892;2024-01-07T16:00:16;1.65;58.74
75363;DHT22;64122;51.988;5.892;2024-01-07T16:02:46;1.58;58.82